Time;durP1;ratioP1;P1;durP2;ratioP2;P2;SDS_P1;SDS_P2;PMS_P1;PMS_P2;Temp;Humidity;BMP_temperature;BMP_pressure;BME280_temperature;BME280_humidity;BME280_pressure;Samples;Min_cycle;Max_cycle;Signal;HPM_P1;HPM_P2
2022/11/16 00:02:16;;;;;;;0.50;0.50;;;10.70;99.90;;;;;;4956839;28;20174;-71
2022/11/16 00:04:42;;;;;;;0.40;0.40;;;10.80;99.90;;;;;;4957014;28;20200;-68
2022/11/16 00:07:08;;;;;;;0.80;0.80;;;10.80;99.90;;;;;;4957331;28;20184;-69
2022/11/16 00:09:34;;;;;;;0.30;0.30;;;10.80;99.90;;;;;;4957665;28;20178;-71
2022/11/16 00:12:02;;;;;;;0.80;0.80;;;10.80;99.90;;;;;;4957630;28;20468;-68
2022/11/16 00:14:30;;;;;;;0.50;0.50;;;10.80;99.90;;;;;;4957495;28;20601;-68
2022/11/16 00:16:57;;;;;;;0.40;0.40;;;10.90;99.90;;;;;;4957689;28;20251;-67
2022/11/16 00:19:23;;;;;;;0.88;0.88;;;10.90;99.90;;;;;;4958195;28;20563;-68
2022/11/16 00:21:49;;;;;;;0.40;0.40;;;10.90;99.90;;;;;;4958376;28;20682;-68
2022/11/16 00:24:16;;;;;;;0.40;0.40;;;10.90;99.90;;;;;;4958556;28;20190;-70
2022/11/16 00:26:43;;;;;;;0.57;0.57;;;10.90;99.90;;;;;;4958642;28;20197;-68
2022/11/16 00:29:23;;;;;;;0.40;0.40;;;10.90;99.90;;;;;;4958211;28;20188;-70
2022/11/16 00:31:49;;;;;;;0.52;0.52;;;11.00;99.90;;;;;;4958306;28;20181;-70
2022/11/16 00:34:15;;;;;;;0.30;0.30;;;11.00;99.90;;;;;;4957822;28;20211;-68
2022/11/16 00:36:42;;;;;;;0.50;0.50;;;11.00;99.90;;;;;;4958293;28;20256;-70
2022/11/16 00:39:10;;;;;;;0.50;0.50;;;11.00;99.90;;;;;;4957923;28;20405;-69
2022/11/16 00:41:36;;;;;;;0.30;0.30;;;11.10;99.90;;;;;;4958387;28;20184;-71
2022/11/16 00:44:02;;;;;;;0.67;0.67;;;11.10;99.90;;;;;;4958465;28;20491;-70
2022/11/16 00:46:27;;;;;;;0.40;0.40;;;11.20;99.90;;;;;;4957661;28;20212;-70
2022/11/16 00:48:53;;;;;;;1.00;0.93;;;11.30;99.90;;;;;;4956423;29;20776;-70
2022/11/16 00:51:19;;;;;;;0.50;0.50;;;11.30;99.90;;;;;;4957999;28;20174;-71
2022/11/16 00:53:44;;;;;;;0.37;0.37;;;11.20;99.90;;;;;;4957924;28;20248;-69
2022/11/16 00:56:10;;;;;;;0.30;0.30;;;11.20;99.90;;;;;;4958059;28;20718;-71
2022/11/16 00:58:36;;;;;;;0.93;0.67;;;11.20;99.90;;;;;;4958038;28;20228;-71
2022/11/16 01:01:06;;;;;;;0.30;0.30;;;11.10;99.90;;;;;;4957594;28;20200;-68
2022/11/16 01:03:32;;;;;;;0.80;0.80;;;11.00;99.90;;;;;;4957701;28;20246;-71
2022/11/16 01:06:06;;;;;;;0.30;0.30;;;11.00;99.90;;;;;;4957659;28;20339;-67
2022/11/16 01:08:33;;;;;;;1.70;0.60;;;11.10;99.90;;;;;;4957631;28;20169;-71
2022/11/16 01:12:07;;;;;;;0.40;0.40;;;11.10;99.90;;;;;;4957066;28;20414;-68
2022/11/16 01:13:45;;;;;;;0.30;0.30;;;11.10;99.90;;;;;;4957164;28;20307;-69
2022/11/16 01:16:15;;;;;;;0.40;0.40;;;11.10;99.90;;;;;;4955992;29;20186;-68
2022/11/16 01:18:42;;;;;;;0.40;0.40;;;11.10;99.90;;;;;;4957349;28;20184;-68
2022/11/16 01:21:08;;;;;;;0.30;0.30;;;11.20;99.90;;;;;;4957693;28;20504;-68
2022/11/16 01:23:34;;;;;;;0.80;0.80;;;11.20;99.90;;;;;;4957802;28;20499;-69
2022/11/16 01:26:02;;;;;;;0.50;0.50;;;11.40;99.90;;;;;;4957086;28;20193;-69
2022/11/16 01:28:29;;;;;;;0.40;0.40;;;11.50;99.90;;;;;;4957390;28;20169;-68
2022/11/16 01:30:55;;;;;;;0.30;0.30;;;11.50;99.90;;;;;;4957129;28;20177;-69
2022/11/16 01:33:21;;;;;;;0.30;0.30;;;11.50;99.90;;;;;;4957301;28;20706;-70
2022/11/16 01:35:46;;;;;;;0.30;0.30;;;11.50;99.90;;;;;;4957424;28;20205;-67
2022/11/16 01:38:12;;;;;;;0.30;0.30;;;11.50;99.90;;;;;;4957435;28;20537;-70
2022/11/16 01:40:38;;;;;;;1.17;1.07;;;11.50;99.90;;;;;;4956686;28;20637;-72
2022/11/16 01:43:14;;;;;;;0.30;0.30;;;11.50;99.90;;;;;;4957292;28;20236;-71
2022/11/16 01:45:41;;;;;;;0.68;0.68;;;11.60;99.90;;;;;;4957207;28;20200;-71
2022/11/16 01:48:08;;;;;;;0.30;0.30;;;11.40;99.90;;;;;;4957213;28;20524;-70
2022/11/16 01:50:34;;;;;;;0.98;0.50;;;11.40;99.90;;;;;;4956594;28;20216;-69
2022/11/16 01:53:03;;;;;;;0.40;0.40;;;11.40;99.90;;;;;;4956972;28;20545;-69
2022/11/16 01:55:32;;;;;;;0.50;0.50;;;11.50;99.90;;;;;;4956810;28;20228;-69
2022/11/16 01:57:59;;;;;;;0.88;0.88;;;11.40;99.90;;;;;;4957053;28;20224;-70
2022/11/16 02:00:25;;;;;;;0.30;0.30;;;11.40;99.90;;;;;;4956738;28;20698;-68
2022/11/16 02:02:50;;;;;;;1.05;0.82;;;11.50;99.90;;;;;;4955683;29;20623;-70
2022/11/16 02:05:21;;;;;;;0.30;0.30;;;11.60;99.90;;;;;;4957035;28;20189;-70
2022/11/16 02:11:00;;;;;;;0.30;0.30;;;11.40;99.90;;;;;;4956262;29;20421;-72
2022/11/16 02:13:49;;;;;;;0.57;0.57;;;11.40;99.90;;;;;;4956799;28;20782;-69
2022/11/16 02:16:34;;;;;;;0.30;0.30;;;11.20;99.90;;;;;;4956234;28;20464;-70
2022/11/16 02:19:21;;;;;;;0.50;0.50;;;11.30;99.90;;;;;;4956285;28;20401;-70
2022/11/16 02:22:22;;;;;;;0.30;0.30;;;11.30;99.90;;;;;;4956655;28;20407;-68
2022/11/16 02:25:35;;;;;;;0.30;0.30;;;11.20;99.90;;;;;;4956050;28;20197;-69
2022/11/16 02:28:24;;;;;;;0.30;0.30;;;11.20;99.90;;;;;;4904369;28;20592;-68
2022/11/16 02:30:54;;;;;;;0.30;0.30;;;11.20;99.90;;;;;;4955896;28;20193;-69
2022/11/16 02:33:24;;;;;;;0.30;0.30;;;11.00;99.90;;;;;;4956086;28;20300;-70
2022/11/16 02:35:55;;;;;;;0.30;0.30;;;10.90;99.90;;;;;;4956375;28;20643;-70
2022/11/16 02:38:26;;;;;;;0.30;0.30;;;10.80;99.90;;;;;;4956475;28;20181;-68
2022/11/16 02:40:59;;;;;;;0.30;0.30;;;10.70;99.90;;;;;;4955612;28;20162;-71
2022/11/16 02:43:42;;;;;;;0.75;0.75;;;10.80;99.90;;;;;;4956037;28;20182;-68
2022/11/16 02:46:15;;;;;;;0.50;0.50;;;10.90;99.90;;;;;;4956127;28;20201;-70
2022/11/16 02:48:45;;;;;;;0.30;0.30;;;10.80;99.90;;;;;;4956075;28;20174;-68
2022/11/16 02:51:13;;;;;;;0.40;0.40;;;10.90;99.90;;;;;;4956090;28;20184;-69
2022/11/16 02:53:50;;;;;;;0.45;0.45;;;10.80;99.90;;;;;;4954364;29;20224;-68
2022/11/16 02:56:16;;;;;;;0.30;0.30;;;10.80;99.90;;;;;;4955970;28;20164;-69
2022/11/16 02:58:42;;;;;;;0.40;0.40;;;10.70;99.90;;;;;;4955519;28;20173;-68
2022/11/16 03:01:14;;;;;;;0.50;0.50;;;10.60;99.90;;;;;;4956065;28;20176;-68
2022/11/16 03:03:58;;;;;;;0.35;0.35;;;10.60;99.90;;;;;;4956238;28;20241;-71
2022/11/16 03:06:29;;;;;;;0.60;0.60;;;10.80;99.90;;;;;;4955839;28;20177;-71
2022/11/16 03:09:25;;;;;;;0.45;0.40;;;10.80;99.90;;;;;;4955575;28;20673;-69
2022/11/16 03:11:58;;;;;;;0.30;0.30;;;10.70;99.90;;;;;;4954851;29;20532;-71
2022/11/16 03:14:51;;;;;;;0.30;0.30;;;10.70;99.90;;;;;;4955585;28;20697;-70
2022/11/16 03:17:28;;;;;;;0.30;0.30;;;10.60;99.90;;;;;;4955593;28;20193;-70
2022/11/16 03:20:06;;;;;;;0.50;0.50;;;10.60;99.90;;;;;;4955326;28;20464;-69
2022/11/16 03:22:51;;;;;;;0.63;0.63;;;10.60;99.90;;;;;;4955438;28;20260;-71
2022/11/16 03:25:19;;;;;;;0.57;0.57;;;10.60;99.90;;;;;;4955645;28;20189;-69
2022/11/16 03:27:56;;;;;;;0.30;0.30;;;10.70;99.90;;;;;;4955878;28;20185;-70
2022/11/16 03:30:24;;;;;;;0.40;0.40;;;10.60;99.90;;;;;;4955211;28;20650;-71
2022/11/16 03:32:54;;;;;;;0.30;0.30;;;10.60;99.90;;;;;;4955794;28;20195;-67
2022/11/16 03:35:43;;;;;;;0.30;0.30;;;10.60;99.90;;;;;;4958279;28;20193;-68
2022/11/16 03:38:11;;;;;;;0.30;0.30;;;10.60;99.90;;;;;;4959498;28;20559;-70
2022/11/16 03:40:38;;;;;;;0.30;0.30;;;10.70;99.90;;;;;;4959360;28;20205;-68
2022/11/16 03:43:06;;;;;;;0.30;0.30;;;10.80;99.90;;;;;;4959558;28;20181;-68
2022/11/16 03:45:32;;;;;;;0.40;0.40;;;10.90;99.90;;;;;;4958803;28;20249;-68
2022/11/16 03:47:59;;;;;;;0.30;0.30;;;10.90;99.90;;;;;;4959012;28;20743;-70
2022/11/16 03:50:25;;;;;;;0.40;0.40;;;10.80;99.90;;;;;;4959000;28;20177;-71
2022/11/16 03:52:51;;;;;;;0.40;0.40;;;10.80;99.90;;;;;;4959001;28;20181;-68
2022/11/16 03:55:17;;;;;;;0.30;0.30;;;10.70;99.90;;;;;;4958671;28;20565;-67
2022/11/16 03:57:43;;;;;;;0.40;0.40;;;10.70;99.90;;;;;;4959340;28;20166;-69
2022/11/16 04:00:09;;;;;;;0.30;0.30;;;10.60;99.90;;;;;;4957314;29;20902;-70
2022/11/16 04:02:35;;;;;;;0.30;0.30;;;10.50;99.90;;;;;;4958988;28;20405;-69
2022/11/16 04:24:30;;;;;;;0.30;0.30;;;10.60;99.90;;;;;;4957562;28;20781;-70
2022/11/16 04:29:49;;;;;;;0.30;0.30;;;10.60;99.90;;;;;;4957434;29;20181;-71
2022/11/16 04:37:48;;;;;;;0.40;0.40;;;10.70;99.90;;;;;;4957000;29;20180;-68
2022/11/16 04:40:26;;;;;;;0.30;0.30;;;10.70;99.90;;;;;;4956985;28;20260;-70
2022/11/16 04:42:56;;;;;;;0.40;0.40;;;10.70;99.90;;;;;;4957228;28;20177;-66
2022/11/16 04:48:08;;;;;;;0.38;0.38;;;10.70;99.90;;;;;;4957250;29;20575;-68
2022/11/16 04:50:34;;;;;;;0.30;0.30;;;10.70;99.90;;;;;;4956684;28;20174;-70
2022/11/16 04:53:00;;;;;;;0.30;0.30;;;10.70;99.90;;;;;;4956918;28;20184;-70
2022/11/16 04:55:26;;;;;;;0.30;0.30;;;10.70;99.90;;;;;;4957042;28;20186;-69
2022/11/16 04:57:52;;;;;;;0.30;0.30;;;10.80;99.90;;;;;;4957144;28;20200;-71
2022/11/16 05:00:18;;;;;;;0.40;0.40;;;10.70;99.90;;;;;;4956485;28;20546;-70
2022/11/16 05:02:44;;;;;;;0.30;0.30;;;10.70;99.90;;;;;;4956539;28;20488;-71
2022/11/16 05:05:10;;;;;;;0.50;0.50;;;10.80;99.90;;;;;;4956791;28;20462;-70
2022/11/16 05:07:35;;;;;;;0.40;0.40;;;10.80;99.90;;;;;;4956763;28;20186;-70
2022/11/16 05:10:05;;;;;;;0.30;0.30;;;10.80;99.90;;;;;;4956202;28;20173;-69
2022/11/16 05:12:31;;;;;;;0.30;0.30;;;10.80;99.90;;;;;;4957003;28;20489;-69
2022/11/16 05:14:57;;;;;;;0.30;0.30;;;10.70;99.90;;;;;;4956657;28;20670;-69
2022/11/16 05:17:24;;;;;;;0.40;0.40;;;10.80;99.90;;;;;;4917515;28;1151161;-70
2022/11/16 05:22:34;;;;;;;0.40;0.40;;;10.70;99.90;;;;;;4957665;29;20543;-71
2022/11/16 05:25:00;;;;;;;0.30;0.30;;;10.80;99.90;;;;;;4957650;28;20203;-70
2022/11/16 05:27:27;;;;;;;0.30;0.30;;;10.60;99.90;;;;;;4957551;28;20264;-68
2022/11/16 05:29:54;;;;;;;0.35;0.35;;;10.20;99.90;;;;;;4957092;28;20476;-70
2022/11/16 05:32:20;;;;;;;0.77;0.77;;;10.10;99.90;;;;;;4957207;28;20260;-70
2022/11/16 05:34:46;;;;;;;0.40;0.40;;;10.10;99.90;;;;;;4956724;28;20211;-68
2022/11/16 05:37:12;;;;;;;0.30;0.30;;;10.30;99.90;;;;;;4957831;28;20244;-69
2022/11/16 05:39:38;;;;;;;0.77;0.77;;;10.50;99.90;;;;;;4956907;28;20623;-70
2022/11/16 05:42:05;;;;;;;0.30;0.30;;;10.50;99.90;;;;;;4957488;28;20401;-68
2022/11/16 05:44:30;;;;;;;0.30;0.30;;;10.60;99.90;;;;;;4955593;28;20201;-68
2022/11/16 05:46:56;;;;;;;1.43;1.33;;;10.60;99.90;;;;;;4956985;28;20180;-68
2022/11/16 05:49:22;;;;;;;0.40;0.40;;;10.60;99.90;;;;;;4956603;28;20219;-70
2022/11/16 05:51:48;;;;;;;0.50;0.50;;;10.70;99.90;;;;;;4956948;28;20179;-67
2022/11/16 05:54:17;;;;;;;0.40;0.40;;;10.70;99.90;;;;;;4956695;28;20559;-69
2022/11/16 05:56:43;;;;;;;0.30;0.30;;;10.60;99.90;;;;;;4956383;28;20405;-69
2022/11/16 05:59:14;;;;;;;0.30;0.30;;;10.60;99.90;;;;;;4956487;28;20244;-70
2022/11/16 06:01:40;;;;;;;0.40;0.40;;;10.60;99.90;;;;;;4956767;28;20497;-70
2022/11/16 06:04:05;;;;;;;0.50;0.50;;;10.40;99.90;;;;;;4956736;28;20619;-71
2022/11/16 06:06:32;;;;;;;0.50;0.50;;;10.30;99.90;;;;;;4956894;28;20409;-71
2022/11/16 06:08:57;;;;;;;0.77;0.77;;;10.30;99.90;;;;;;4956818;28;20184;-68
2022/11/16 06:11:23;;;;;;;0.40;0.40;;;10.40;99.90;;;;;;4956333;28;20592;-71
2022/11/16 06:13:49;;;;;;;0.30;0.30;;;10.40;99.90;;;;;;4956412;28;20201;-70
2022/11/16 06:16:14;;;;;;;0.30;0.30;;;10.50;99.90;;;;;;4956099;28;20661;-71
2022/11/16 06:18:43;;;;;;;0.80;0.80;;;10.50;99.90;;;;;;4956336;28;20405;-70
2022/11/16 06:21:10;;;;;;;0.47;0.47;;;10.50;99.90;;;;;;4956634;28;20252;-68
2022/11/16 06:23:36;;;;;;;0.40;0.40;;;10.50;99.90;;;;;;4956002;28;20569;-71
2022/11/16 06:26:01;;;;;;;0.30;0.30;;;10.60;99.90;;;;;;4956071;28;20197;-71
2022/11/16 06:28:27;;;;;;;0.40;0.40;;;11.10;99.90;;;;;;4956120;28;20260;-71
2022/11/16 06:30:53;;;;;;;0.30;0.30;;;11.70;99.90;;;;;;4956101;28;20192;-70
2022/11/16 06:33:19;;;;;;;0.40;0.40;;;12.40;99.90;;;;;;4956478;28;20937;-71
2022/11/16 06:35:45;;;;;;;0.37;0.37;;;12.90;99.90;;;;;;4956309;28;20277;-70
2022/11/16 06:38:17;;;;;;;0.40;0.40;;;13.40;99.90;;;;;;4956493;28;20170;-71
2022/11/16 06:40:53;;;;;;;0.33;0.33;;;13.80;99.90;;;;;;4955815;28;20946;-71
2022/11/16 06:43:20;;;;;;;0.60;0.40;;;14.20;99.60;;;;;;4956116;28;20413;-71
2022/11/16 06:45:49;;;;;;;0.40;0.40;;;14.60;98.60;;;;;;4956206;28;20508;-71
2022/11/16 06:48:15;;;;;;;0.70;0.70;;;14.80;96.70;;;;;;4956272;28;20406;-71
2022/11/16 06:50:41;;;;;;;2.37;0.70;;;15.00;96.70;;;;;;4955505;28;20421;-72
2022/11/16 06:53:09;;;;;;;0.37;0.37;;;15.10;96.10;;;;;;4954628;29;20414;-71
2022/11/16 06:55:35;;;;;;;0.30;0.30;;;15.30;95.60;;;;;;4955601;28;20478;-69
2022/11/16 06:58:01;;;;;;;0.50;0.50;;;15.00;93.20;;;;;;4954189;28;20410;-69
2022/11/16 07:00:27;;;;;;;0.60;0.60;;;14.60;93.60;;;;;;4955522;28;20224;-68
2022/11/16 07:02:53;;;;;;;0.30;0.30;;;13.90;94.20;;;;;;4954510;28;20444;-70
2022/11/16 07:05:18;;;;;;;0.30;0.30;;;13.30;94.70;;;;;;4953933;28;20228;-68
2022/11/16 07:07:44;;;;;;;0.47;0.40;;;12.70;95.60;;;;;;4955573;28;20753;-70
2022/11/16 07:10:10;;;;;;;0.40;0.40;;;12.20;96.10;;;;;;4954786;28;20217;-70
2022/11/16 07:12:36;;;;;;;0.30;0.30;;;11.70;97.20;;;;;;4955881;28;20405;-68
2022/11/16 07:15:01;;;;;;;0.53;0.40;;;11.50;97.50;;;;;;4955735;28;20240;-70
2022/11/16 07:17:27;;;;;;;0.40;0.40;;;11.30;97.90;;;;;;4955903;28;20177;-68
2022/11/16 07:19:52;;;;;;;0.60;0.60;;;11.10;98.20;;;;;;4955456;28;20169;-70
2022/11/16 07:22:18;;;;;;;0.50;0.50;;;11.00;98.60;;;;;;4955817;28;20196;-67
2022/11/16 07:24:43;;;;;;;0.30;0.30;;;10.80;99.20;;;;;;4955525;28;20600;-69
2022/11/16 07:27:09;;;;;;;0.37;0.37;;;10.80;99.60;;;;;;4955890;28;20177;-69
2022/11/16 07:29:35;;;;;;;0.30;0.30;;;10.60;99.90;;;;;;4955065;28;20185;-69
2022/11/16 07:32:00;;;;;;;1.37;1.27;;;10.60;99.90;;;;;;4955850;28;20204;-69
2022/11/16 07:34:26;;;;;;;0.30;0.30;;;10.70;99.90;;;;;;4955801;28;20201;-70
2022/11/16 07:36:51;;;;;;;3.07;1.13;;;10.70;99.90;;;;;;4954049;29;20642;-71
2022/11/16 07:39:17;;;;;;;0.30;0.30;;;10.60;99.90;;;;;;4955061;28;20176;-71
2022/11/16 07:41:43;;;;;;;0.40;0.40;;;10.60;99.90;;;;;;4955451;28;20165;-69
2022/11/16 07:44:09;;;;;;;0.30;0.30;;;10.60;99.90;;;;;;4955423;28;20239;-68
2022/11/16 07:46:35;;;;;;;0.50;0.50;;;10.70;99.90;;;;;;4955695;28;20260;-69
2022/11/16 07:49:01;;;;;;;0.50;0.50;;;10.90;99.90;;;;;;4955405;28;20759;-69
2022/11/16 07:51:27;;;;;;;0.97;0.97;;;11.10;99.90;;;;;;4955166;28;20184;-69
2022/11/16 07:53:56;;;;;;;0.30;0.30;;;11.20;99.90;;;;;;4955072;28;20232;-70
2022/11/16 07:56:22;;;;;;;0.88;0.80;;;11.00;99.40;;;;;;4954781;28;20627;-69
2022/11/16 07:58:48;;;;;;;0.40;0.40;;;10.80;99.40;;;;;;4954476;28;20185;-71
2022/11/16 08:01:16;;;;;;;0.30;0.30;;;10.80;99.90;;;;;;4954728;28;20173;-69
2022/11/16 08:03:43;;;;;;;0.40;0.40;;;10.90;99.90;;;;;;4955579;29;20174;-71
2022/11/16 08:06:19;;;;;;;0.40;0.40;;;10.80;99.90;;;;;;4954981;28;20765;-71
2022/11/16 08:08:45;;;;;;;0.50;0.50;;;10.90;99.70;;;;;;4955225;28;20177;-70
2022/11/16 08:11:11;;;;;;;0.40;0.40;;;11.00;99.80;;;;;;4955332;28;20678;-70
2022/11/16 08:13:39;;;;;;;0.40;0.40;;;10.90;99.50;;;;;;4955138;28;20209;-70
2022/11/16 08:16:17;;;;;;;0.30;0.30;;;10.90;99.70;;;;;;4954162;28;20201;-69
2022/11/16 08:18:43;;;;;;;0.32;0.32;;;11.00;99.90;;;;;;4954606;28;20177;-71
2022/11/16 08:21:14;;;;;;;0.30;0.30;;;11.10;99.70;;;;;;4957487;28;20174;-69
2022/11/16 08:23:40;;;;;;;0.93;0.50;;;11.20;99.90;;;;;;4958618;28;20186;-69
2022/11/16 08:26:13;;;;;;;0.30;0.30;;;11.20;99.10;;;;;;4957994;28;20205;-70
2022/11/16 08:28:39;;;;;;;0.55;0.55;;;11.30;99.00;;;;;;4958356;28;20170;-70
2022/11/16 08:31:14;;;;;;;0.30;0.30;;;11.20;99.20;;;;;;4955740;29;20185;-68
2022/11/16 08:33:39;;;;;;;0.30;0.30;;;11.10;98.90;;;;;;4958242;28;20452;-71
2022/11/16 08:36:06;;;;;;;1.90;0.40;;;11.30;98.90;;;;;;4957726;28;20204;-71
2022/11/16 08:38:32;;;;;;;0.40;0.40;;;11.60;98.40;;;;;;4958299;28;20252;-69
2022/11/16 08:40:58;;;;;;;0.40;0.40;;;11.90;98.30;;;;;;4958531;28;20448;-71
2022/11/16 08:43:24;;;;;;;0.40;0.40;;;12.20;98.30;;;;;;4958046;28;20504;-70
2022/11/16 08:45:51;;;;;;;0.30;0.30;;;12.40;97.10;;;;;;4957956;28;20197;-70
2022/11/16 08:48:16;;;;;;;0.40;0.40;;;12.50;96.30;;;;;;4957964;28;20410;-70
2022/11/16 08:50:42;;;;;;;0.30;0.30;;;12.60;96.50;;;;;;4957509;28;20417;-70
2022/11/16 08:53:09;;;;;;;0.30;0.30;;;12.70;96.70;;;;;;4957923;28;20643;-70
2022/11/16 08:55:35;;;;;;;0.40;0.40;;;12.70;95.60;;;;;;4958170;28;20284;-69
2022/11/16 08:58:00;;;;;;;0.40;0.40;;;12.50;95.50;;;;;;4957580;28;20488;-69
2022/11/16 09:00:26;;;;;;;0.40;0.40;;;12.60;96.20;;;;;;4957541;28;20716;-70
2022/11/16 09:02:51;;;;;;;1.00;0.40;;;13.00;96.10;;;;;;4957692;28;20169;-70
2022/11/16 09:05:17;;;;;;;0.50;0.50;;;13.50;95.40;;;;;;4957372;28;20193;-68
2022/11/16 09:07:44;;;;;;;0.30;0.30;;;13.80;94.70;;;;;;4957344;28;20686;-68
2022/11/16 09:10:11;;;;;;;0.60;0.60;;;14.00;93.80;;;;;;4957180;28;20535;-70
2022/11/16 09:12:37;;;;;;;0.50;0.40;;;14.00;93.70;;;;;;4956260;29;20417;-68
2022/11/16 09:15:05;;;;;;;0.30;0.30;;;13.80;93.70;;;;;;4956140;28;20480;-71
2022/11/16 09:17:31;;;;;;;0.83;0.80;;;13.30;93.20;;;;;;4958016;28;20425;-68
2022/11/16 09:19:57;;;;;;;3.50;0.50;;;13.00;93.90;;;;;;4957192;28;20436;-68
2022/11/16 09:22:23;;;;;;;0.93;0.83;;;12.60;94.40;;;;;;4957646;28;20493;-70
2022/11/16 09:24:48;;;;;;;0.70;0.70;;;12.30;95.00;;;;;;4957204;28;20874;-70
2022/11/16 09:27:15;;;;;;;0.40;0.40;;;11.90;95.90;;;;;;4957112;28;20181;-72
2022/11/16 09:29:41;;;;;;;0.30;0.30;;;11.80;96.00;;;;;;4957191;28;20169;-71
2022/11/16 09:32:06;;;;;;;0.40;0.40;;;11.90;96.70;;;;;;4956667;28;20217;-72
2022/11/16 09:34:35;;;;;;;0.30;0.30;;;11.70;96.30;;;;;;4957157;28;20268;-70
2022/11/16 09:37:01;;;;;;;0.40;0.40;;;11.60;96.90;;;;;;4957495;28;20220;-71
2022/11/16 09:39:30;;;;;;;0.30;0.30;;;11.60;97.10;;;;;;4956895;28;20174;-69
2022/11/16 09:42:12;;;;;;;0.50;0.50;;;11.80;97.50;;;;;;4956918;28;20463;-71
2022/11/16 09:44:58;;;;;;;0.50;0.50;;;12.00;97.40;;;;;;4956859;28;20433;-70
2022/11/16 09:48:04;;;;;;;0.40;0.40;;;12.20;96.60;;;;;;4957129;28;20413;-73
2022/11/16 09:50:56;;;;;;;0.37;0.37;;;12.40;95.40;;;;;;4944152;28;20425;-71
2022/11/16 09:53:51;;;;;;;0.40;0.40;;;12.70;95.00;;;;;;4956990;28;20448;-71
2022/11/16 09:56:26;;;;;;;0.30;0.30;;;13.30;95.30;;;;;;4955171;29;20421;-73
2022/11/16 09:59:06;;;;;;;1.43;1.33;;;14.60;94.10;;;;;;4956340;28;20913;-72
2022/11/16 10:01:55;;;;;;;0.47;0.47;;;16.20;91.80;;;;;;4956749;28;20408;-70
2022/11/16 10:04:39;;;;;;;0.33;0.33;;;16.80;90.50;;;;;;4956573;28;20508;-71
2022/11/16 10:07:07;;;;;;;0.50;0.50;;;17.20;88.00;;;;;;4956598;28;20851;-69
2022/11/16 10:09:34;;;;;;;0.40;0.40;;;17.30;85.90;;;;;;4955861;28;20406;-72
2022/11/16 10:12:25;;;;;;;0.40;0.40;;;17.60;83.30;;;;;;4956622;28;20504;-70
2022/11/16 10:15:14;;;;;;;0.30;0.30;;;17.80;83.10;;;;;;4956369;28;20466;-70
2022/11/16 10:17:39;;;;;;;1.27;1.03;;;17.80;82.40;;;;;;4956021;28;20423;-69
2022/11/16 10:20:24;;;;;;;0.50;0.50;;;17.50;80.70;;;;;;4954687;28;20409;-70
2022/11/16 10:23:05;;;;;;;0.47;0.40;;;17.00;81.10;;;;;;4956704;28;20174;-70
2022/11/16 10:25:44;;;;;;;0.30;0.30;;;16.40;82.80;;;;;;4955930;28;20440;-70
2022/11/16 10:28:42;;;;;;;1.27;0.40;;;16.30;85.20;;;;;;4956216;28;20397;-70
2022/11/16 10:31:19;;;;;;;0.30;0.30;;;16.40;84.40;;;;;;4923886;28;20840;-70
2022/11/16 10:33:48;;;;;;;0.30;0.30;;;16.40;83.20;;;;;;4956456;28;20508;-70
2022/11/16 10:36:15;;;;;;;1.13;0.43;;;16.20;85.60;;;;;;4955844;28;20413;-70
2022/11/16 10:38:43;;;;;;;0.30;0.30;;;15.60;86.20;;;;;;4955900;28;20400;-69
2022/11/16 10:41:38;;;;;;;0.40;0.40;;;14.80;88.10;;;;;;4956020;28;20417;-69
2022/11/16 10:44:16;;;;;;;1.90;0.80;;;14.00;89.90;;;;;;4955563;28;20492;-71
2022/11/16 10:46:49;;;;;;;0.30;0.30;;;13.50;90.70;;;;;;4955805;28;20408;-68
2022/11/16 10:49:26;;;;;;;0.40;0.40;;;13.30;91.00;;;;;;4954215;29;20472;-68
2022/11/16 10:51:51;;;;;;;0.60;0.60;;;13.10;91.40;;;;;;4956233;28;20421;-71
2022/11/16 10:54:17;;;;;;;2.77;0.57;;;13.00;92.00;;;;;;4955987;28;20474;-70
2022/11/16 10:56:50;;;;;;;0.67;0.67;;;12.80;92.50;;;;;;4956340;28;20181;-70
2022/11/16 10:59:19;;;;;;;0.30;0.30;;;12.90;92.40;;;;;;4955578;28;20444;-68
2022/11/16 11:01:51;;;;;;;0.40;0.40;;;13.00;92.60;;;;;;4955884;28;20413;-69
2022/11/16 11:04:22;;;;;;;0.30;0.30;;;13.10;92.50;;;;;;4955970;28;20429;-70
2022/11/16 11:06:51;;;;;;;1.37;0.67;;;13.30;92.50;;;;;;4956078;28;20421;-70
2022/11/16 11:09:22;;;;;;;1.47;0.50;;;13.50;93.10;;;;;;4955337;28;20828;-70
2022/11/16 11:12:38;;;;;;;0.90;0.70;;;13.60;92.50;;;;;;4955624;28;20410;-70
2022/11/16 11:15:04;;;;;;;0.30;0.30;;;13.50;92.40;;;;;;4955855;28;20457;-70
2022/11/16 11:17:32;;;;;;;0.87;0.87;;;13.40;93.10;;;;;;4955335;28;20428;-69
2022/11/16 11:20:04;;;;;;;3.63;1.60;;;13.40;92.80;;;;;;4955451;28;20397;-69
2022/11/16 11:22:41;;;;;;;0.93;0.93;;;13.50;92.40;;;;;;4955761;28;20500;-72
2022/11/16 11:25:32;;;;;;;0.40;0.40;;;13.70;92.20;;;;;;4955395;28;20853;-68
2022/11/16 11:28:16;;;;;;;0.80;0.80;;;13.80;92.00;;;;;;4955753;28;20421;-69
2022/11/16 11:30:52;;;;;;;0.37;0.37;;;13.50;91.60;;;;;;4955353;28;20412;-70
2022/11/16 11:33:22;;;;;;;0.40;0.40;;;13.40;91.40;;;;;;4955581;28;20751;-70
2022/11/16 11:36:17;;;;;;;0.50;0.50;;;13.40;92.10;;;;;;4955642;28;20428;-69
2022/11/16 11:39:12;;;;;;;0.30;0.30;;;13.40;92.10;;;;;;4955326;28;20405;-71
2022/11/16 11:41:40;;;;;;;0.30;0.30;;;13.30;91.50;;;;;;4949448;29;20431;-68
2022/11/16 11:44:15;;;;;;;0.40;0.40;;;13.40;91.10;;;;;;4955567;28;20413;-68
2022/11/16 11:46:56;;;;;;;0.50;0.50;;;13.50;91.40;;;;;;4955003;28;20435;-70
2022/11/16 11:49:30;;;;;;;0.30;0.30;;;13.60;92.00;;;;;;4955140;28;20411;-72
2022/11/16 11:52:07;;;;;;;0.30;0.30;;;13.80;91.90;;;;;;4955325;28;20413;-70
2022/11/16 11:54:41;;;;;;;0.40;0.40;;;13.90;91.60;;;;;;4955740;28;20495;-68
2022/11/16 11:57:14;;;;;;;0.50;0.50;;;14.10;91.80;;;;;;4958830;28;20525;-67
2022/11/16 11:59:40;;;;;;;0.30;0.30;;;14.00;91.40;;;;;;4959390;28;20443;-68
2022/11/16 12:02:27;;;;;;;0.70;0.60;;;13.70;91.40;;;;;;4957778;28;20409;-68
2022/11/16 12:05:18;;;;;;;0.30;0.30;;;13.70;91.70;;;;;;4957235;28;20433;-68
2022/11/16 12:07:49;;;;;;;0.30;0.30;;;13.60;92.30;;;;;;4958009;28;20488;-70
2022/11/16 12:10:25;;;;;;;0.30;0.30;;;13.50;92.70;;;;;;4958636;28;20412;-70
2022/11/16 12:13:13;;;;;;;0.30;0.30;;;13.70;92.30;;;;;;4959017;28;20764;-69
2022/11/16 12:15:48;;;;;;;0.30;0.30;;;13.90;92.30;;;;;;4957139;28;20495;-68
2022/11/16 12:18:33;;;;;;;2.77;0.70;;;14.00;91.40;;;;;;4958896;28;20416;-68
2022/11/16 12:21:12;;;;;;;2.20;1.60;;;14.00;91.70;;;;;;4959297;28;20455;-68
2022/11/16 12:23:47;;;;;;;0.60;0.60;;;13.80;91.70;;;;;;4958744;28;20502;-70
2022/11/16 12:26:25;;;;;;;0.40;0.40;;;13.60;91.60;;;;;;4958945;28;20765;-70
2022/11/16 12:29:18;;;;;;;0.50;0.50;;;13.50;92.00;;;;;;4958329;28;20793;-71
2022/11/16 12:32:05;;;;;;;0.30;0.30;;;13.50;92.50;;;;;;4958650;28;20448;-68
2022/11/16 12:34:52;;;;;;;0.30;0.30;;;13.50;91.40;;;;;;4958539;28;20460;-71
2022/11/16 12:37:21;;;;;;;0.30;0.30;;;13.50;92.20;;;;;;4958049;28;20405;-69
2022/11/16 12:40:14;;;;;;;0.73;0.70;;;13.50;92.90;;;;;;4957767;28;20437;-69
2022/11/16 12:42:47;;;;;;;0.40;0.40;;;13.40;92.20;;;;;;4958308;28;20765;-69
2022/11/16 12:45:42;;;;;;;0.40;0.40;;;13.20;93.10;;;;;;4958566;28;20432;-71
2022/11/16 12:48:37;;;;;;;0.40;0.40;;;13.20;93.30;;;;;;4956645;28;20413;-67
2022/11/16 12:51:35;;;;;;;1.17;0.40;;;13.40;92.50;;;;;;4955364;29;20412;-69
2022/11/16 12:54:38;;;;;;;0.30;0.30;;;13.50;92.00;;;;;;4943790;28;20464;-71
2022/11/16 12:57:54;;;;;;;1.90;0.50;;;13.50;92.20;;;;;;4958125;28;20495;-72
2022/11/16 13:00:19;;;;;;;0.40;0.40;;;13.50;91.50;;;;;;4898703;29;20428;-68
2022/11/16 13:03:03;;;;;;;0.30;0.30;;;13.40;93.00;;;;;;4951648;28;20796;-69
2022/11/16 13:05:54;;;;;;;0.60;0.60;;;13.20;94.60;;;;;;4957563;28;20613;-70
2022/11/16 13:08:58;;;;;;;0.30;0.30;;;13.00;95.60;;;;;;4957106;28;20412;-71
2022/11/16 13:11:29;;;;;;;2.30;0.77;;;12.90;96.20;;;;;;4958008;29;20423;-70
2022/11/16 13:14:02;;;;;;;0.40;0.40;;;12.80;96.40;;;;;;4957721;28;20976;-71
2022/11/16 13:16:28;;;;;;;0.40;0.40;;;12.90;96.30;;;;;;4957475;28;20432;-71
2022/11/16 13:18:54;;;;;;;0.40;0.40;;;13.10;95.20;;;;;;4957571;28;20416;-71
2022/11/16 13:21:44;;;;;;;0.33;0.33;;;13.20;94.40;;;;;;4957586;28;20945;-70
2022/11/16 13:24:28;;;;;;;0.30;0.30;;;13.20;96.00;;;;;;4957584;28;20925;-70
2022/11/16 13:27:45;;;;;;;0.30;0.30;;;13.20;95.00;;;;;;4956031;29;20973;-71
2022/11/16 13:30:20;;;;;;;0.30;0.30;;;13.30;94.90;;;;;;4932344;28;20429;-70
2022/11/16 13:32:51;;;;;;;0.30;0.30;;;13.20;96.20;;;;;;4957714;28;20451;-70
2022/11/16 13:35:19;;;;;;;0.30;0.30;;;13.10;96.50;;;;;;4956803;28;20478;-69
2022/11/16 13:37:47;;;;;;;0.40;0.40;;;13.00;96.70;;;;;;4957323;28;20412;-69
2022/11/16 13:40:28;;;;;;;0.57;0.50;;;13.10;96.30;;;;;;4957146;28;20398;-70
2022/11/16 13:43:01;;;;;;;3.80;1.57;;;13.00;96.40;;;;;;4957508;28;20797;-70
2022/11/16 13:45:41;;;;;;;0.40;0.40;;;12.80;93.60;;;;;;4957033;28;20429;-71
2022/11/16 13:48:18;;;;;;;0.50;0.50;;;12.80;93.80;;;;;;4957145;28;20416;-71
2022/11/16 13:50:53;;;;;;;0.30;0.30;;;12.80;95.70;;;;;;4956958;28;20411;-70